Super Servant 4 — PJPO — position and weather

sailwx.info

Track history (hours):
 
Tides and Currents Weather Stations Pressure Air Temp Water Temp Dewpoint Dewpoint Depression Visibility Wind Speed Wind Dir Waves Ship Positions

Super Servant 4

Last reported at 2016-Apr-22 21:33 UTC. Time now 2016-May-04 23:05 UTC.
Position N 35°58' W 005°33'.
Warning: this ship's position is 12 days out of date.

Length 139 m; beam 32 m.

Type: Cargo ship. MMSI: 306157000.

Date/timePositionNaut miles runAvg speedWind from/ knotsBaromVisibWave heightAir tempDewpointWater temp
2016-Apr-22 21:33N 35°58' W 005°33'9 9.0
2016-Apr-22 20:33N 36°00' W 005°23'9 9.2
2016-Apr-22 19:34N 36°02' W 005°12'17411.3
2016-Apr-22 04:05N 36°42' W 001°41'711.5
2016-Apr-22 03:30N 36°46' W 001°34'1611.8
2016-Apr-22 02:06N 36°55' W 001°17'611.3
2016-Apr-22 01:33N 36°59' W 001°10'1111.4
2016-Apr-22 00:33N 37°05' W 000°59'1211.8
2016-Apr-21 23:33N 37°12' W 000°47'1212.1
2016-Apr-21 22:33N 37°18' W 000°34'1211.9
2016-Apr-21 21:33N 37°27' W 000°24'1211.6
2016-Apr-21 20:33N 37°37' W 000°15'1111.4
2016-Apr-21 19:33N 37°46' W 000°07'1211.6
2016-Apr-21 18:33N 37°55' E 000°02'1111.2
2016-Apr-21 17:33N 38°04' E 000°11'1110.8
2016-Apr-21 16:33N 38°13' E 000°19'2311.1
2016-Apr-21 14:30N 38°31' E 000°37'6610.8
2016-Apr-21 08:25N 39°22' E 001°31'910.7
2016-Apr-21 07:34N 39°27' E 001°40'1010.2
2016-Apr-21 06:33N 39°34' E 001°50'10 9.7
2016-Apr-21 05:33N 39°41' E 001°59'1010.0
2016-Apr-21 04:33N 39°48' E 002°09'1010.2
2016-Apr-21 03:33N 39°54' E 002°19'1111.2
2016-Apr-21 02:33N 40°01' E 002°31'1211.7
2016-Apr-21 01:33N 40°07' E 002°43'1111.4
2016-Apr-21 00:33N 40°14' E 002°55'1111.2
2016-Apr-20 23:33N 40°21' E 003°06'1111.4
2016-Apr-20 22:33N 40°28' E 003°18'1511.2
2016-Apr-20 21:12N 40°37' E 003°34'3411.6
2016-Apr-20 18:18N 40°57' E 004°10'6711.6
2016-Apr-20 12:34N 41°38' E 005°20'1211.5
2016-Apr-20 11:33N 41°45' E 005°32'1111.4
2016-Apr-20 10:33N 41°52' E 005°44'1111.4
2016-Apr-20 09:33N 41°60' E 005°56'2110.4
2016-Apr-20 07:33N 42°17' E 006°13'4410.9
2016-Apr-20 03:31N 42°51' E 006°49'1611.8
2016-Apr-20 02:09N 43°02' E 007°06'2111.7
2016-Apr-20 00:22N 43°16' E 007°27'1311.7
2016-Apr-19 23:14N 43°25' E 007°41'4912.4
2016-Apr-19 19:15N 44°03' E 008°24'912.7
2016-Apr-19 18:32N 44°11' E 008°31'1212.0
2016-Apr-19 17:33N 44°21' E 008°40'7 1.6
2016-Apr-19 13:20N 44°25' E 008°47'0 0.0
2016-Apr-19 12:14N 44°25' E 008°47'0 0.0
2016-Apr-19 11:20N 44°25' E 008°47'0 0.0
2016-Apr-19 10:32N 44°25' E 008°47'0 0.0
2016-Apr-19 09:32N 44°25' E 008°47'0 0.0
2016-Apr-19 08:14N 44°25' E 008°47'0 0.0
2016-Apr-18 23:26N 44°25' E 008°47'0 0.0
2016-Apr-18 20:14N 44°25' E 008°47'0 0.0
2016-Apr-18 19:32N 44°25' E 008°47'0 0.0
2016-Apr-18 18:32N 44°25' E 008°47'0 0.0
2016-Apr-18 17:26N 44°25' E 008°47'0 0.0
2016-Apr-18 16:26N 44°25' E 008°47'0 0.0
2016-Apr-18 15:32N 44°25' E 008°47'0 0.0
2016-Apr-18 14:32N 44°25' E 008°47'0 0.0
2016-Apr-18 13:29N 44°25' E 008°47'0 0.0
2016-Apr-18 12:32N 44°25' E 008°47'0 0.0
2016-Apr-18 11:26N 44°25' E 008°47'0 0.0
2016-Apr-18 10:32N 44°25' E 008°47'0 0.0
2016-Apr-18 09:32N 44°25' E 008°47'0 0.0
2016-Apr-18 08:32N 44°25' E 008°47'0 0.0
2016-Apr-18 07:32N 44°25' E 008°47'0 0.0
2016-Apr-18 06:32N 44°25' E 008°47'0 0.0
2016-Apr-18 05:33N 44°25' E 008°47'6 5.8
2016-Apr-18 04:33N 44°21' E 008°41'1111.5
2016-Apr-18 03:33N 44°11' E 008°33'1311.5
2016-Apr-18 02:27N 44°01' E 008°22'2211.5
2016-Apr-18 00:33N 43°43' E 008°05'2711.9
2016-Apr-17 22:18N 43°24' E 007°39'1012.3
2016-Apr-17 21:27N 43°17' E 007°28'1312.4
2016-Apr-17 20:25N 43°08' E 007°15'1212.4
2016-Apr-17 19:29N 43°00' E 007°03'10012.4
2016-Apr-17 11:26N 41°55' E 005°21'11312.7
2016-Apr-17 02:33N 40°41' E 003°28'1312.9
2016-Apr-17 01:33N 40°33' E 003°15'1312.6
2016-Apr-17 00:33N 40°24' E 003°04'1312.7
2016-Apr-16 23:33N 40°15' E 002°51'1313.5
2016-Apr-16 22:33N 40°06' E 002°38'1413.5
2016-Apr-16 21:33N 39°57' E 002°25'1313.4
2016-Apr-16 20:33N 39°49' E 002°11'1313.5
2016-Apr-16 19:33N 39°40' E 001°58'1312.8
2016-Apr-16 18:33N 39°31' E 001°46'1313.2
2016-Apr-16 17:33N 39°23' E 001°33'1413.1
2016-Apr-16 16:31N 39°14' E 001°19'1613.5
2016-Apr-16 15:19N 39°03' E 001°04'1013.1
2016-Apr-16 14:33N 38°54' E 000°57'1212.4
2016-Apr-16 13:33N 38°45' E 000°46'1212.3
2016-Apr-16 12:33N 38°36' E 000°36'1212.2
2016-Apr-16 11:33N 38°26' E 000°26'1312.6
2016-Apr-16 10:33N 38°17' E 000°16'1312.7
2016-Apr-16 09:33N 38°07' E 000°05'1212.5
2016-Apr-16 08:33N 37°57' W 000°05'1212.1
2016-Apr-16 07:33N 37°48' W 000°15'1212.0
2016-Apr-16 06:33N 37°39' W 000°24'1212.3
2016-Apr-16 05:33N 37°30' W 000°35'1212.2
2016-Apr-16 04:33N 37°22' W 000°46'1212.0
2016-Apr-16 03:34N 37°14' W 000°58'1412.3
2016-Apr-16 02:23N 37°05' W 001°11'20312.1
2016-Apr-15 09:34N 36°01' W 005°12'1110.6
2016-Apr-15 08:33N 36°05' W 005°24'1 0.6
2016-Apr-15 07:31N 36°05' W 005°25'0 0.0
2016-Apr-15 06:31N 36°05' W 005°25'0 0.0
2016-Apr-15 05:28N 36°05' W 005°25'0 0.0
2016-Apr-15 04:28N 36°05' W 005°25'0 0.0
2016-Apr-15 03:31N 36°05' W 005°25'0 0.0
2016-Apr-15 02:31N 36°05' W 005°25'0 0.0
2016-Apr-15 01:22N 36°05' W 005°25'0 0.0
2016-Apr-15 00:31N 36°05' W 005°25'0 0.0
2016-Apr-14 23:28N 36°05' W 005°25'0 0.0
2016-Apr-14 22:31N 36°05' W 005°25'0 0.0
2016-Apr-14 21:31N 36°05' W 005°25'0 0.0
2016-Apr-14 20:31N 36°05' W 005°25'0 0.0
2016-Apr-14 19:31N 36°05' W 005°25'0 0.0
2016-Apr-14 18:31N 36°05' W 005°25'0 0.0
2016-Apr-14 17:31N 36°05' W 005°25'0 0.0
2016-Apr-14 16:31N 36°05' W 005°25'0 0.0
2016-Apr-14 15:28N 36°05' W 005°25'6 6.4
2016-Apr-14 14:33N 35°59' W 005°23'  
Track history (hours):
 
Tides and Currents Weather Stations Pressure Air Temp Water Temp Dewpoint Dewpoint Depression Visibility Wind Speed Wind Dir Waves Ship Positions

Super Servant 4

Last reported at 2016-Apr-22 21:33 UTC. Time now 2016-May-04 23:05 UTC.
Position N 35°58' W 005°33'.
Warning: this ship's position is 12 days out of date.

Length 139 m; beam 32 m.

Type: Cargo ship. MMSI: 306157000.

Date/timePositionNaut miles runAvg speedWind from/ knotsBaromVisibWave heightAir tempDewpointWater temp
2016-Apr-22 21:33N 35°58' W 005°33'9 9.0
2016-Apr-22 20:33N 36°00' W 005°23'9 9.2
2016-Apr-22 19:34N 36°02' W 005°12'17411.3
2016-Apr-22 04:05N 36°42' W 001°41'711.5
2016-Apr-22 03:30N 36°46' W 001°34'1611.8
2016-Apr-22 02:06N 36°55' W 001°17'611.3
2016-Apr-22 01:33N 36°59' W 001°10'1111.4
2016-Apr-22 00:33N 37°05' W 000°59'1211.8
2016-Apr-21 23:33N 37°12' W 000°47'1212.1
2016-Apr-21 22:33N 37°18' W 000°34'1211.9
2016-Apr-21 21:33N 37°27' W 000°24'1211.6
2016-Apr-21 20:33N 37°37' W 000°15'1111.4
2016-Apr-21 19:33N 37°46' W 000°07'1211.6
2016-Apr-21 18:33N 37°55' E 000°02'1111.2
2016-Apr-21 17:33N 38°04' E 000°11'1110.8
2016-Apr-21 16:33N 38°13' E 000°19'2311.1
2016-Apr-21 14:30N 38°31' E 000°37'6610.8
2016-Apr-21 08:25N 39°22' E 001°31'910.7
2016-Apr-21 07:34N 39°27' E 001°40'1010.2
2016-Apr-21 06:33N 39°34' E 001°50'10 9.7
2016-Apr-21 05:33N 39°41' E 001°59'1010.0
2016-Apr-21 04:33N 39°48' E 002°09'1010.2
2016-Apr-21 03:33N 39°54' E 002°19'1111.2
2016-Apr-21 02:33N 40°01' E 002°31'1211.7
2016-Apr-21 01:33N 40°07' E 002°43'1111.4
2016-Apr-21 00:33N 40°14' E 002°55'1111.2
2016-Apr-20 23:33N 40°21' E 003°06'1111.4
2016-Apr-20 22:33N 40°28' E 003°18'1511.2
2016-Apr-20 21:12N 40°37' E 003°34'3411.6
2016-Apr-20 18:18N 40°57' E 004°10'6711.6
2016-Apr-20 12:34N 41°38' E 005°20'1211.5
2016-Apr-20 11:33N 41°45' E 005°32'1111.4
2016-Apr-20 10:33N 41°52' E 005°44'1111.4
2016-Apr-20 09:33N 41°60' E 005°56'2110.4
2016-Apr-20 07:33N 42°17' E 006°13'4410.9
2016-Apr-20 03:31N 42°51' E 006°49'1611.8
2016-Apr-20 02:09N 43°02' E 007°06'2111.7
2016-Apr-20 00:22N 43°16' E 007°27'1311.7
2016-Apr-19 23:14N 43°25' E 007°41'4912.4
2016-Apr-19 19:15N 44°03' E 008°24'912.7
2016-Apr-19 18:32N 44°11' E 008°31'1212.0
2016-Apr-19 17:33N 44°21' E 008°40'7 1.6
2016-Apr-19 13:20N 44°25' E 008°47'0 0.0
2016-Apr-19 12:14N 44°25' E 008°47'0 0.0
2016-Apr-19 11:20N 44°25' E 008°47'0 0.0
2016-Apr-19 10:32N 44°25' E 008°47'0 0.0
2016-Apr-19 09:32N 44°25' E 008°47'0 0.0
2016-Apr-19 08:14N 44°25' E 008°47'0 0.0
2016-Apr-18 23:26N 44°25' E 008°47'0 0.0
2016-Apr-18 20:14N 44°25' E 008°47'0 0.0
2016-Apr-18 19:32N 44°25' E 008°47'0 0.0
2016-Apr-18 18:32N 44°25' E 008°47'0 0.0
2016-Apr-18 17:26N 44°25' E 008°47'0 0.0
2016-Apr-18 16:26N 44°25' E 008°47'0 0.0
2016-Apr-18 15:32N 44°25' E 008°47'0 0.0
2016-Apr-18 14:32N 44°25' E 008°47'0 0.0
2016-Apr-18 13:29N 44°25' E 008°47'0 0.0
2016-Apr-18 12:32N 44°25' E 008°47'0 0.0
2016-Apr-18 11:26N 44°25' E 008°47'0 0.0
2016-Apr-18 10:32N 44°25' E 008°47'0 0.0
2016-Apr-18 09:32N 44°25' E 008°47'0 0.0
2016-Apr-18 08:32N 44°25' E 008°47'0 0.0
2016-Apr-18 07:32N 44°25' E 008°47'0 0.0
2016-Apr-18 06:32N 44°25' E 008°47'0 0.0
2016-Apr-18 05:33N 44°25' E 008°47'6 5.8
2016-Apr-18 04:33N 44°21' E 008°41'1111.5
2016-Apr-18 03:33N 44°11' E 008°33'1311.5
2016-Apr-18 02:27N 44°01' E 008°22'2211.5
2016-Apr-18 00:33N 43°43' E 008°05'2711.9
2016-Apr-17 22:18N 43°24' E 007°39'1012.3
2016-Apr-17 21:27N 43°17' E 007°28'1312.4
2016-Apr-17 20:25N 43°08' E 007°15'1212.4
2016-Apr-17 19:29N 43°00' E 007°03'10012.4
2016-Apr-17 11:26N 41°55' E 005°21'11312.7
2016-Apr-17 02:33N 40°41' E 003°28'1312.9
2016-Apr-17 01:33N 40°33' E 003°15'1312.6
2016-Apr-17 00:33N 40°24' E 003°04'1312.7
2016-Apr-16 23:33N 40°15' E 002°51'1313.5
2016-Apr-16 22:33N 40°06' E 002°38'1413.5
2016-Apr-16 21:33N 39°57' E 002°25'1313.4
2016-Apr-16 20:33N 39°49' E 002°11'1313.5
2016-Apr-16 19:33N 39°40' E 001°58'1312.8
2016-Apr-16 18:33N 39°31' E 001°46'1313.2
2016-Apr-16 17:33N 39°23' E 001°33'1413.1
2016-Apr-16 16:31N 39°14' E 001°19'1613.5
2016-Apr-16 15:19N 39°03' E 001°04'1013.1
2016-Apr-16 14:33N 38°54' E 000°57'1212.4
2016-Apr-16 13:33N 38°45' E 000°46'1212.3
2016-Apr-16 12:33N 38°36' E 000°36'1212.2
2016-Apr-16 11:33N 38°26' E 000°26'1312.6
2016-Apr-16 10:33N 38°17' E 000°16'1312.7
2016-Apr-16 09:33N 38°07' E 000°05'1212.5
2016-Apr-16 08:33N 37°57' W 000°05'1212.1
2016-Apr-16 07:33N 37°48' W 000°15'1212.0
2016-Apr-16 06:33N 37°39' W 000°24'1212.3
2016-Apr-16 05:33N 37°30' W 000°35'1212.2
2016-Apr-16 04:33N 37°22' W 000°46'1212.0
2016-Apr-16 03:34N 37°14' W 000°58'1412.3
2016-Apr-16 02:23N 37°05' W 001°11'20312.1
2016-Apr-15 09:34N 36°01' W 005°12'1110.6
2016-Apr-15 08:33N 36°05' W 005°24'1 0.6
2016-Apr-15 07:31N 36°05' W 005°25'0 0.0
2016-Apr-15 06:31N 36°05' W 005°25'0 0.0
2016-Apr-15 05:28N 36°05' W 005°25'0 0.0
2016-Apr-15 04:28N 36°05' W 005°25'0 0.0
2016-Apr-15 03:31N 36°05' W 005°25'0 0.0
2016-Apr-15 02:31N 36°05' W 005°25'0 0.0
2016-Apr-15 01:22N 36°05' W 005°25'0 0.0
2016-Apr-15 00:31N 36°05' W 005°25'0 0.0
2016-Apr-14 23:28N 36°05' W 005°25'0 0.0
2016-Apr-14 22:31N 36°05' W 005°25'0 0.0
2016-Apr-14 21:31N 36°05' W 005°25'0 0.0
2016-Apr-14 20:31N 36°05' W 005°25'0 0.0
2016-Apr-14 19:31N 36°05' W 005°25'0 0.0
2016-Apr-14 18:31N 36°05' W 005°25'0 0.0
2016-Apr-14 17:31N 36°05' W 005°25'0 0.0
2016-Apr-14 16:31N 36°05' W 005°25'0 0.0
2016-Apr-14 15:28N 36°05' W 005°25'6 6.4
2016-Apr-14 14:33N 35°59' W 005°23'  

Dump ship's entire track history